Ghedi Airport LIPL

Flugplatz Daten

Name: Ghedi Airport

Ident: LIPL

Lat: 45,43220139

Long: 10,2677002

Platzhöhe: 333 ft

IataCode:

City: Ghedi

Metar

2021/12/03 23:55
LIPL 032355Z 05004KT CAVOK 03/01 Q1014 RMK SKC VIS MIN 9999 WIND THR31 09004KT WIND THR13 07003KT BLU

Taf

2021/07/07 09:24
TAF TAF LIPL 070800Z 0709/0721 12008KT CAVOK
Gewünschte Webcam nicht vorhanden? Dann fügen Sie eine hinzu. Sie wird dann so schnell wie möglich freigeschaltet
Url: Title: